createdAt,value
2023-06-13T00:00:49.939Z,51.212196
2023-06-13T00:01:50.024Z,51.212170
2023-06-13T00:02:51.032Z,51.212242
2023-06-13T00:03:49.932Z,51.212276
2023-06-13T00:04:50.909Z,51.212269
2023-06-13T00:05:49.911Z,51.212265
2023-06-13T00:06:49.908Z,51.212231
2023-06-13T00:07:49.925Z,51.212170
2023-06-13T00:08:49.875Z,51.212173
2023-06-13T00:09:49.919Z,51.212269
2023-06-13T00:10:49.883Z,51.212193
2023-06-13T00:11:49.862Z,51.212059
2023-06-13T00:12:49.843Z,51.212173
2023-06-13T00:13:49.841Z,51.212177
2023-06-13T00:14:49.856Z,51.212193
2023-06-13T00:15:49.842Z,51.212208
2023-06-13T00:16:49.826Z,51.212208
2023-06-13T00:17:50.055Z,51.212265
2023-06-13T00:18:49.875Z,51.212166
2023-06-13T00:19:49.950Z,51.212265
2023-06-13T00:20:49.794Z,51.212204
2023-06-13T00:21:49.815Z,51.212292
2023-06-13T00:22:49.809Z,51.212341
2023-06-13T00:23:49.792Z,51.212223
2023-06-13T00:24:49.805Z,51.212109
2023-06-13T00:25:50.296Z,51.212032
2023-06-13T00:26:49.780Z,51.212032
2023-06-13T00:27:49.768Z,51.212101
2023-06-13T00:28:49.761Z,51.212223
2023-06-13T00:29:49.742Z,51.212109
2023-06-13T00:30:49.752Z,51.212101
2023-06-13T00:31:49.739Z,51.212074
2023-06-13T00:32:49.784Z,51.212219
2023-06-13T00:33:49.754Z,51.212280
2023-06-13T00:34:49.718Z,51.212257
2023-06-13T00:35:49.703Z,51.212036
2023-06-13T00:36:49.722Z,51.212170
2023-06-13T00:37:49.833Z,51.212387
2023-06-13T00:38:49.783Z,51.212124
2023-06-13T00:39:49.699Z,51.212090
2023-06-13T00:40:49.679Z,51.212112
2023-06-13T00:41:49.687Z,51.212173
2023-06-13T00:42:49.678Z,51.212265
2023-06-13T00:43:49.645Z,51.212265
2023-06-13T00:44:49.681Z,51.212292
2023-06-13T00:45:50.164Z,51.212269
2023-06-13T00:46:49.753Z,51.212158
2023-06-13T00:47:49.652Z,51.212231
2023-06-13T00:48:49.616Z,51.212246
2023-06-13T00:49:49.630Z,51.212234
2023-06-13T00:50:49.639Z,51.212181
2023-06-13T00:51:49.618Z,51.212307
2023-06-13T00:52:49.626Z,51.212185
2023-06-13T00:53:49.594Z,51.212204
2023-06-13T00:54:49.600Z,51.212296
2023-06-13T00:55:49.585Z,51.212357
2023-06-13T00:56:49.550Z,51.212399
2023-06-13T00:57:49.547Z,51.212509
2023-06-13T00:58:49.545Z,51.212574
2023-06-13T00:59:49.544Z,51.212132
2023-06-13T01:00:49.549Z,51.211998
2023-06-13T01:01:49.557Z,51.211987
2023-06-13T01:02:49.590Z,51.212002
2023-06-13T01:03:49.547Z,51.212082
2023-06-13T01:04:49.576Z,51.212055
2023-06-13T01:05:49.504Z,51.211964
2023-06-13T01:06:49.496Z,51.212017
2023-06-13T01:07:49.533Z,51.212181
2023-06-13T01:08:49.482Z,51.212101
2023-06-13T01:09:49.483Z,51.212105
2023-06-13T01:10:49.480Z,51.212112
2023-06-13T01:11:50.494Z,51.212059
2023-06-13T01:12:49.484Z,51.212009
2023-06-13T01:13:49.476Z,51.212025
2023-06-13T01:14:49.446Z,51.212215
2023-06-13T01:15:49.426Z,51.212173
2023-06-13T01:16:49.560Z,51.212242
2023-06-13T01:17:49.518Z,51.212143
2023-06-13T01:18:49.429Z,51.212215
2023-06-13T01:19:49.422Z,51.212200
2023-06-13T01:20:49.434Z,51.212059
2023-06-13T01:21:49.405Z,51.212112
2023-06-13T01:22:49.404Z,51.212040
2023-06-13T01:23:49.449Z,51.212070
2023-06-13T01:24:49.364Z,51.212097
2023-06-13T01:25:49.373Z,51.211941
2023-06-13T01:26:49.359Z,51.212059
2023-06-13T01:27:49.362Z,51.212177
2023-06-13T01:28:49.361Z,51.212189
2023-06-13T01:29:49.349Z,51.212162
2023-06-13T01:30:49.354Z,51.212128
2023-06-13T01:31:49.386Z,51.212204
2023-06-13T01:32:49.376Z,51.212204
2023-06-13T01:33:49.333Z,51.212139
2023-06-13T01:34:49.297Z,51.212158
2023-06-13T01:35:49.320Z,51.212135
2023-06-13T01:36:49.309Z,51.212112
2023-06-13T01:37:49.316Z,51.212070
2023-06-13T01:38:49.292Z,51.212078
2023-06-13T01:39:49.268Z,51.212067
2023-06-13T01:40:49.269Z,51.212074
2023-06-13T01:41:49.287Z,51.212219
2023-06-13T01:42:49.295Z,51.212173
2023-06-13T01:43:49.322Z,51.212181
2023-06-13T01:44:49.219Z,51.212189
2023-06-13T01:45:49.296Z,51.212177
2023-06-13T01:46:49.246Z,51.212173
2023-06-13T01:47:49.250Z,51.212124
2023-06-13T01:48:49.216Z,51.212128
2023-06-13T01:49:49.238Z,51.212143
2023-06-13T01:50:49.191Z,51.212215
2023-06-13T01:51:49.210Z,51.212208
2023-06-13T01:52:49.220Z,51.212196
2023-06-13T01:53:49.172Z,51.212173
2023-06-13T01:54:49.165Z,51.212189
2023-06-13T01:55:49.160Z,51.212158
2023-06-13T01:56:49.165Z,51.212101
2023-06-13T01:57:49.172Z,51.212128
2023-06-13T01:58:49.154Z,51.212143
2023-06-13T01:59:49.110Z,51.212128
2023-06-13T02:00:49.120Z,51.212193
2023-06-13T02:01:50.130Z,51.212208
2023-06-13T02:02:49.217Z,51.212193
2023-06-13T02:03:49.193Z,51.212170
2023-06-13T02:04:49.098Z,51.212212
2023-06-13T02:05:49.105Z,51.212246
2023-06-13T02:06:49.089Z,51.212254
2023-06-13T02:07:49.087Z,51.212200
2023-06-13T02:08:49.100Z,51.212219
2023-06-13T02:09:49.105Z,51.212173
2023-06-13T02:10:49.122Z,51.212139
2023-06-13T02:11:49.050Z,51.212112
2023-06-13T02:12:49.079Z,51.212093
2023-06-13T02:13:49.022Z,51.212067
2023-06-13T02:14:49.018Z,51.212013
2023-06-13T02:15:49.024Z,51.212044
2023-06-13T02:16:49.075Z,51.212074
2023-06-13T02:17:49.097Z,51.212120
2023-06-13T02:18:49.045Z,51.212147
2023-06-13T02:19:49.032Z,51.212097
2023-06-13T02:20:48.979Z,51.212082
2023-06-13T02:21:48.974Z,51.212051
2023-06-13T02:22:48.988Z,51.212132
2023-06-13T02:23:48.993Z,51.212051
2023-06-13T02:24:48.958Z,51.212158
2023-06-13T02:25:48.961Z,51.212112
2023-06-13T02:26:48.969Z,51.212128
2023-06-13T02:27:48.917Z,51.212105
2023-06-13T02:28:48.972Z,51.212162
2023-06-13T02:29:48.931Z,51.212185
2023-06-13T02:30:48.922Z,51.212238
2023-06-13T02:31:49.063Z,51.212166
2023-06-13T02:32:48.941Z,51.212132
2023-06-13T02:33:48.882Z,51.212120
2023-06-13T02:34:48.898Z,51.212162
2023-06-13T02:35:48.871Z,51.212109
2023-06-13T02:36:48.877Z,51.212154
2023-06-13T02:37:48.864Z,51.212196
2023-06-13T02:38:48.850Z,51.212269
2023-06-13T02:39:48.873Z,51.212074
2023-06-13T02:40:48.879Z,51.212189
2023-06-13T02:41:48.828Z,51.212128
2023-06-13T02:42:48.887Z,51.212078
2023-06-13T02:43:48.824Z,51.212120
2023-06-13T02:44:48.816Z,51.212170
2023-06-13T02:45:48.814Z,51.212151
2023-06-13T02:46:48.790Z,51.212086
2023-06-13T02:47:48.913Z,51.212101
2023-06-13T02:48:48.918Z,51.212101
2023-06-13T02:49:48.783Z,51.212097
2023-06-13T02:50:48.806Z,51.212139
2023-06-13T02:51:48.769Z,51.212143
2023-06-13T02:52:51.688Z,51.212055
2023-06-13T02:53:48.800Z,51.212086
2023-06-13T02:54:48.755Z,51.212082
2023-06-13T02:55:48.737Z,51.212105
2023-06-13T02:56:48.804Z,51.212067
2023-06-13T02:57:48.739Z,51.212120
2023-06-13T02:58:48.737Z,51.212132
2023-06-13T02:59:48.715Z,51.212139
2023-06-13T03:00:48.761Z,51.212154
2023-06-13T03:01:48.694Z,51.212063
2023-06-13T03:02:48.776Z,51.212017
2023-06-13T03:03:48.937Z,51.211975
2023-06-13T03:04:48.694Z,51.212093
2023-06-13T03:05:48.827Z,51.212055
2023-06-13T03:06:48.688Z,51.212101
2023-06-13T03:07:48.690Z,51.212082
2023-06-13T03:08:48.678Z,51.212135
2023-06-13T03:09:48.708Z,51.212044
2023-06-13T03:10:48.623Z,51.211990
2023-06-13T03:11:48.623Z,51.211998
2023-06-13T03:12:48.624Z,51.212132
2023-06-13T03:13:48.652Z,51.212086
2023-06-13T03:14:48.636Z,51.211926
2023-06-13T03:15:48.664Z,51.211845
2023-06-13T03:16:48.697Z,51.211983
2023-06-13T03:17:48.649Z,51.211948
2023-06-13T03:18:48.600Z,51.211807
2023-06-13T03:19:49.936Z,51.212006
2023-06-13T03:20:48.565Z,51.212048
2023-06-13T03:21:48.566Z,51.211998
2023-06-13T03:22:48.565Z,51.211998
2023-06-13T03:23:48.634Z,51.212082
2023-06-13T03:24:48.541Z,51.212074
2023-06-13T03:25:48.525Z,51.211853
2023-06-13T03:26:48.568Z,51.212082
2023-06-13T03:27:48.574Z,51.211967
2023-06-13T03:28:48.568Z,51.211983
2023-06-13T03:29:48.543Z,51.212128
2023-06-13T03:30:48.532Z,51.212006
2023-06-13T03:31:48.525Z,51.212040
2023-06-13T03:32:48.584Z,51.211979
2023-06-13T03:33:48.492Z,51.212132
2023-06-13T03:34:48.506Z,51.212166
2023-06-13T03:35:48.478Z,51.212124
2023-06-13T03:36:48.485Z,51.212013
2023-06-13T03:37:48.468Z,51.212059
2023-06-13T03:38:48.519Z,51.212139
2023-06-13T03:39:48.466Z,51.212170
2023-06-13T03:40:48.450Z,51.212204
2023-06-13T03:41:48.451Z,51.212162
2023-06-13T03:42:48.423Z,51.212227
2023-06-13T03:43:48.445Z,51.212242
2023-06-13T03:44:48.486Z,51.212132
2023-06-13T03:45:48.441Z,51.212227
2023-06-13T03:46:48.405Z,51.212078
2023-06-13T03:47:48.503Z,51.212135
2023-06-13T03:48:48.555Z,51.212204
2023-06-13T03:49:48.385Z,51.212086
2023-06-13T03:50:48.382Z,51.212044
2023-06-13T03:51:48.366Z,51.212181
2023-06-13T03:52:49.362Z,51.212086
2023-06-13T03:53:48.415Z,51.212250
2023-06-13T03:54:48.356Z,51.212261
2023-06-13T03:55:48.321Z,51.212139
2023-06-13T03:56:48.308Z,51.212154
2023-06-13T03:57:48.326Z,51.212147
2023-06-13T03:58:48.339Z,51.212223
2023-06-13T03:59:48.304Z,51.212284
2023-06-13T04:00:48.290Z,51.212208
2023-06-13T04:01:48.308Z,51.212051
2023-06-13T04:02:48.354Z,51.212154
2023-06-13T04:03:48.438Z,51.212139
2023-06-13T04:04:48.277Z,51.212288
2023-06-13T04:05:48.292Z,51.212151
2023-06-13T04:06:48.249Z,51.212357
2023-06-13T04:07:48.303Z,51.212349
2023-06-13T04:08:48.304Z,51.212410
2023-06-13T04:09:48.333Z,51.212219
2023-06-13T04:10:48.260Z,51.212284
2023-06-13T04:11:48.224Z,51.212353
2023-06-13T04:12:48.236Z,51.212337
2023-06-13T04:13:48.228Z,51.212299
2023-06-13T04:14:48.292Z,51.212322
2023-06-13T04:15:48.215Z,51.212311
2023-06-13T04:16:48.246Z,51.212296
2023-06-13T04:17:48.531Z,51.212353
2023-06-13T04:18:49.191Z,51.212292
2023-06-13T04:19:48.182Z,51.212318
2023-06-13T04:20:48.175Z,51.212254
2023-06-13T04:21:48.208Z,51.212204
2023-06-13T04:22:48.180Z,51.212284
2023-06-13T04:23:48.150Z,51.212288
2023-06-13T04:24:48.252Z,51.212215
2023-06-13T04:25:48.126Z,51.212189
2023-06-13T04:26:48.120Z,51.212166
2023-06-13T04:27:48.324Z,51.212208
2023-06-13T04:28:48.109Z,51.212254
2023-06-13T04:29:48.096Z,51.212151
2023-06-13T04:30:48.120Z,51.212162
2023-06-13T04:31:48.191Z,51.212185
2023-06-13T04:32:49.129Z,51.212189
2023-06-13T04:33:48.209Z,51.212189
2023-06-13T04:34:48.155Z,51.212246
2023-06-13T04:35:48.084Z,51.212234
2023-06-13T04:36:49.041Z,51.212238
2023-06-13T04:37:48.100Z,51.212250
2023-06-13T04:38:48.046Z,51.212219
2023-06-13T04:39:48.013Z,51.212193
2023-06-13T04:40:48.083Z,51.212208
2023-06-13T04:41:48.040Z,51.212257
2023-06-13T04:42:48.006Z,51.212193
2023-06-13T04:43:48.001Z,51.212112
2023-06-13T04:44:48.055Z,51.212116
2023-06-13T04:45:48.057Z,51.212116
2023-06-13T04:46:47.975Z,51.212074
2023-06-13T04:47:56.238Z,51.212063
2023-06-13T04:48:49.942Z,51.212070
2023-06-13T04:49:47.978Z,51.212070
2023-06-13T04:50:48.101Z,51.212116
2023-06-13T04:51:47.957Z,51.212185
2023-06-13T04:52:47.945Z,51.212189
2023-06-13T04:53:47.913Z,51.212002
2023-06-13T04:54:47.925Z,51.212006
2023-06-13T04:55:49.013Z,51.212177
2023-06-13T04:56:47.928Z,51.212132
2023-06-13T04:57:48.005Z,51.212273
2023-06-13T04:58:47.925Z,51.212185
2023-06-13T04:59:47.886Z,51.212132
2023-06-13T05:00:47.943Z,51.212097
2023-06-13T05:01:48.436Z,51.212082
2023-06-13T05:02:50.779Z,51.212162
2023-06-13T05:03:47.897Z,51.212112
2023-06-13T05:04:47.892Z,51.212181
2023-06-13T05:05:47.910Z,51.212181
2023-06-13T05:06:47.847Z,51.212181
2023-06-13T05:07:47.831Z,51.212189
2023-06-13T05:08:47.881Z,51.212173
2023-06-13T05:09:47.844Z,51.212128
2023-06-13T05:10:47.805Z,51.212120
2023-06-13T05:11:47.815Z,51.212097
2023-06-13T05:12:47.793Z,51.212040
2023-06-13T05:13:47.805Z,51.212097
2023-06-13T05:14:47.792Z,51.212074
2023-06-13T05:15:47.867Z,51.212132
2023-06-13T05:16:47.768Z,51.212158
2023-06-13T05:17:47.765Z,51.212128
2023-06-13T05:18:48.340Z,51.212120
2023-06-13T05:19:47.764Z,51.212139
2023-06-13T05:20:48.761Z,51.212093
2023-06-13T05:21:47.796Z,51.212143
2023-06-13T05:22:47.744Z,51.212196
2023-06-13T05:23:47.839Z,51.212158
2023-06-13T05:24:47.717Z,51.212227
2023-06-13T05:25:47.701Z,51.212044
2023-06-13T05:26:47.741Z,51.212280
2023-06-13T05:27:47.729Z,51.212067
2023-06-13T05:28:47.694Z,51.212341
2023-06-13T05:29:47.695Z,51.212246
2023-06-13T05:30:47.749Z,51.212116
2023-06-13T05:31:47.749Z,51.212055
2023-06-13T05:32:47.774Z,51.212021
2023-06-13T05:33:47.649Z,51.212017
2023-06-13T05:34:47.668Z,51.211983
2023-06-13T05:35:57.201Z,51.211994
2023-06-13T05:36:49.679Z,51.211975
2023-06-13T05:37:47.657Z,51.212006
2023-06-13T05:38:47.669Z,51.212044
2023-06-13T05:39:47.620Z,51.212101
2023-06-13T05:40:47.612Z,51.212154
2023-06-13T05:41:47.631Z,51.212093
2023-06-13T05:42:47.627Z,51.212097
2023-06-13T05:43:47.623Z,51.212067
2023-06-13T05:44:47.610Z,51.212044
2023-06-13T05:45:47.696Z,51.212040
2023-06-13T05:46:47.704Z,51.211994
2023-06-13T05:47:47.674Z,51.211937
2023-06-13T05:48:47.715Z,51.211922
2023-06-13T05:49:47.636Z,51.211960
2023-06-13T05:50:47.613Z,51.211933
2023-06-13T05:51:47.624Z,51.212006
2023-06-13T05:52:47.556Z,51.211823
2023-06-13T05:53:47.699Z,51.211788
2023-06-13T05:54:47.518Z,51.211895
2023-06-13T05:55:47.593Z,51.211834
2023-06-13T05:56:47.513Z,51.211933
2023-06-13T05:57:47.532Z,51.212143
2023-06-13T05:58:47.555Z,51.212067
2023-06-13T05:59:47.537Z,51.211769
2023-06-13T06:00:47.518Z,51.211773
2023-06-13T06:01:47.491Z,51.211651
2023-06-13T06:02:47.767Z,51.211643
2023-06-13T06:03:47.548Z,51.211624
2023-06-13T06:04:47.574Z,51.211529
2023-06-13T06:05:47.478Z,51.211838
2023-06-13T06:06:47.442Z,51.212185
2023-06-13T06:07:47.449Z,51.212204
2023-06-13T06:08:47.446Z,51.212101
2023-06-13T06:09:47.435Z,51.212105
2023-06-13T06:10:47.444Z,51.211800
2023-06-13T06:11:47.440Z,51.211941
2023-06-13T06:12:47.407Z,51.211868
2023-06-13T06:13:47.425Z,51.211868
2023-06-13T06:14:47.400Z,51.211666
2023-06-13T06:15:47.441Z,51.211910
2023-06-13T06:16:47.413Z,51.211945
2023-06-13T06:17:47.534Z,51.211845
2023-06-13T06:18:47.613Z,51.211823
2023-06-13T06:19:47.379Z,51.211796
2023-06-13T06:20:47.400Z,51.211899
2023-06-13T06:21:47.373Z,51.211830
2023-06-13T06:22:47.408Z,51.211807
2023-06-13T06:23:47.408Z,51.211788
2023-06-13T06:24:47.328Z,51.211781
2023-06-13T06:25:47.330Z,51.211910
2023-06-13T06:26:47.336Z,51.211800
2023-06-13T06:27:47.347Z,51.211849
2023-06-13T06:28:47.347Z,51.211758
2023-06-13T06:29:47.299Z,51.211906
2023-06-13T06:30:47.325Z,51.211857
2023-06-13T06:31:47.275Z,51.211788
2023-06-13T06:32:47.314Z,51.211735
2023-06-13T06:33:47.286Z,51.211788
2023-06-13T06:34:47.291Z,51.211830
2023-06-13T06:35:47.272Z,51.211853
2023-06-13T06:36:47.328Z,51.212040
2023-06-13T06:37:47.253Z,51.212086
2023-06-13T06:38:47.295Z,51.212036
2023-06-13T06:39:47.228Z,51.211926
2023-06-13T06:40:47.282Z,51.211960
2023-06-13T06:41:47.248Z,51.212105
2023-06-13T06:42:47.227Z,51.211979
2023-06-13T06:43:47.213Z,51.211716
2023-06-13T06:44:47.256Z,51.211609
2023-06-13T06:45:47.230Z,51.211792
2023-06-13T06:46:47.246Z,51.211910
2023-06-13T06:47:47.233Z,51.211754
2023-06-13T06:48:47.223Z,51.211658
2023-06-13T06:49:47.170Z,51.211704
2023-06-13T06:50:47.170Z,51.211781
2023-06-13T06:51:47.175Z,51.211880
2023-06-13T06:52:47.251Z,51.211933
2023-06-13T06:53:47.136Z,51.211964
2023-06-13T06:54:47.154Z,51.211971
2023-06-13T06:55:47.141Z,51.211830
2023-06-13T06:56:47.166Z,51.211819
2023-06-13T06:57:47.130Z,51.212086
2023-06-13T06:58:47.119Z,51.212185
2023-06-13T06:59:47.105Z,51.212181
2023-06-13T07:00:47.191Z,51.212208
2023-06-13T07:01:47.135Z,51.212234
2023-06-13T07:02:47.143Z,51.212193
2023-06-13T07:03:47.120Z,51.212219
2023-06-13T07:04:47.063Z,51.212135
2023-06-13T07:05:47.117Z,51.212215
2023-06-13T07:06:47.095Z,51.212425
2023-06-13T07:07:47.064Z,51.212238
2023-06-13T07:08:47.060Z,51.212276
2023-06-13T07:09:48.039Z,51.212212
2023-06-13T07:10:47.463Z,51.212399
2023-06-13T07:11:47.026Z,51.212353
2023-06-13T07:12:47.019Z,51.211983
2023-06-13T07:13:47.053Z,51.212120
2023-06-13T07:14:47.054Z,51.211887
2023-06-13T07:15:47.054Z,51.212124
2023-06-13T07:16:47.072Z,51.212219
2023-06-13T07:17:47.036Z,51.212185
2023-06-13T07:18:46.969Z,51.212280
2023-06-13T07:19:46.992Z,51.212177
2023-06-13T07:20:47.032Z,51.212112
2023-06-13T07:21:47.069Z,51.212193
2023-06-13T07:22:47.005Z,51.212151
2023-06-13T07:24:01.530Z,51.211796
2023-06-13T07:24:48.972Z,51.211971
2023-06-13T07:25:46.965Z,51.212147
2023-06-13T07:26:47.012Z,51.212269
2023-06-13T07:27:46.996Z,51.212460
2023-06-13T07:28:47.944Z,51.212479
2023-06-13T07:29:46.953Z,51.212296
2023-06-13T07:30:46.926Z,51.212032
2023-06-13T07:31:46.968Z,51.212109
2023-06-13T07:32:47.000Z,51.212395
2023-06-13T07:33:46.921Z,51.212215
2023-06-13T07:35:03.915Z,51.212292
2023-06-13T07:35:48.868Z,51.212204
2023-06-13T07:36:46.853Z,51.212360
2023-06-13T07:37:46.936Z,51.212322
2023-06-13T07:38:46.946Z,51.212261
2023-06-13T07:39:46.875Z,51.212181
2023-06-13T07:40:46.856Z,51.212097
2023-06-13T07:41:46.826Z,51.212143
2023-06-13T07:42:46.841Z,51.212177
2023-06-13T07:43:46.834Z,51.212189
2023-06-13T07:44:46.909Z,51.212257
2023-06-13T07:45:46.866Z,51.212173
2023-06-13T07:46:46.805Z,51.212166
2023-06-13T07:47:46.849Z,51.212086
2023-06-13T07:48:46.781Z,51.212151
2023-06-13T07:49:46.821Z,51.212132
2023-06-13T07:50:46.794Z,51.212147
2023-06-13T07:51:46.766Z,51.212151
2023-06-13T07:52:47.074Z,51.212254
2023-06-13T07:53:46.787Z,51.212246
2023-06-13T07:54:46.769Z,51.212250
2023-06-13T07:55:46.822Z,51.212231
2023-06-13T07:56:46.724Z,51.212204
2023-06-13T07:57:59.113Z,51.212147
2023-06-13T07:58:48.732Z,51.212074
2023-06-13T07:59:46.739Z,51.212067
2023-06-13T08:00:46.711Z,51.212093
2023-06-13T08:01:46.759Z,51.212124
2023-06-13T08:02:46.948Z,51.212105
2023-06-13T08:03:46.905Z,51.212128
2023-06-13T08:04:54.052Z,51.212139
2023-06-13T08:05:48.681Z,51.212173
2023-06-13T08:06:46.649Z,51.212151
2023-06-13T08:07:46.661Z,51.212082
2023-06-13T08:08:46.654Z,51.212051
2023-06-13T08:09:46.689Z,51.212044
2023-06-13T08:10:46.643Z,51.212044
2023-06-13T08:11:46.630Z,51.211979
2023-06-13T08:12:46.628Z,51.212105
2023-06-13T08:13:46.655Z,51.211998
2023-06-13T08:14:47.432Z,51.212273
2023-06-13T08:15:46.651Z,51.212154
2023-06-13T08:16:48.500Z,51.212166
2023-06-13T08:17:46.625Z,51.212196
2023-06-13T08:18:46.631Z,51.212151
2023-06-13T08:19:46.572Z,51.212029
2023-06-13T08:20:46.636Z,51.212017
2023-06-13T08:21:46.580Z,51.212067
2023-06-13T08:22:46.568Z,51.211994
2023-06-13T08:23:46.605Z,51.211964
2023-06-13T08:24:46.561Z,51.212196
2023-06-13T08:25:46.738Z,51.212318
2023-06-13T08:26:46.551Z,51.212135
2023-06-13T08:27:46.534Z,51.211964
2023-06-13T08:28:46.553Z,51.211876
2023-06-13T08:29:46.527Z,51.212086
2023-06-13T08:30:46.569Z,51.212048
2023-06-13T08:31:49.815Z,51.212074
2023-06-13T08:32:47.721Z,51.212048
2023-06-13T08:34:03.023Z,51.212082
2023-06-13T08:34:48.521Z,51.212109
2023-06-13T08:35:46.552Z,51.211945
2023-06-13T08:36:46.504Z,51.211994
2023-06-13T08:37:46.478Z,51.212013
2023-06-13T08:38:51.275Z,51.212090
2023-06-13T08:39:48.476Z,51.212086
2023-06-13T08:40:46.439Z,51.212086
2023-06-13T08:41:46.458Z,51.212097
2023-06-13T08:42:46.522Z,51.212067
2023-06-13T08:43:46.445Z,51.212009
2023-06-13T08:44:46.460Z,51.212032
2023-06-13T08:45:46.432Z,51.212112
2023-06-13T08:46:46.521Z,51.212074
2023-06-13T08:47:46.618Z,51.211983
2023-06-13T08:48:46.447Z,51.211975
2023-06-13T08:49:46.449Z,51.212032
2023-06-13T08:50:46.493Z,51.212063
2023-06-13T08:51:46.375Z,51.212078
2023-06-13T08:52:46.383Z,51.212097
2023-06-13T08:53:47.364Z,51.212139
2023-06-13T08:55:02.229Z,51.212151
2023-06-13T08:56:47.355Z,51.212132
2023-06-13T08:57:46.348Z,51.212223
2023-06-13T08:58:46.328Z,51.211987
2023-06-13T08:59:46.351Z,51.211960
2023-06-13T09:00:46.318Z,51.211979
2023-06-13T09:01:46.314Z,51.211964
2023-06-13T09:02:46.434Z,51.212101
2023-06-13T09:03:46.381Z,51.212036
2023-06-13T09:04:46.305Z,51.212070
2023-06-13T09:05:46.346Z,51.212048
2023-06-13T09:06:46.309Z,51.212116
2023-06-13T09:07:46.289Z,51.212093
2023-06-13T09:08:46.288Z,51.212189
2023-06-13T09:09:46.264Z,51.212040
2023-06-13T09:10:46.268Z,51.212070
2023-06-13T09:11:47.383Z,51.212166
2023-06-13T09:12:46.274Z,51.212124
2023-06-13T09:13:46.283Z,51.211956
2023-06-13T09:14:46.328Z,51.211926
2023-06-13T09:15:46.277Z,51.212128
2023-06-13T09:16:46.394Z,51.212105
2023-06-13T09:17:46.368Z,51.212242
2023-06-13T09:18:46.253Z,51.212166
2023-06-13T09:19:46.196Z,51.212208
2023-06-13T09:20:46.198Z,51.212139
2023-06-13T09:21:46.193Z,51.212078
2023-06-13T09:22:46.207Z,51.212128
2023-06-13T09:23:46.223Z,51.211914
2023-06-13T09:24:46.161Z,51.212021
2023-06-13T09:25:46.182Z,51.212101
2023-06-13T09:26:46.183Z,51.212170
2023-06-13T09:27:46.152Z,51.212032
2023-06-13T09:28:46.175Z,51.212128
2023-06-13T09:29:46.156Z,51.212040
2023-06-13T09:30:46.164Z,51.212105
2023-06-13T09:31:46.134Z,51.212025
2023-06-13T09:32:46.183Z,51.211967
2023-06-13T09:33:46.211Z,51.212021
2023-06-13T09:34:46.127Z,51.212078
2023-06-13T09:35:46.119Z,51.212154
2023-06-13T09:36:46.161Z,51.212158
2023-06-13T09:37:46.172Z,51.212189
2023-06-13T09:38:46.084Z,51.212158
2023-06-13T09:39:46.709Z,51.212151
2023-06-13T09:40:46.134Z,51.212154
2023-06-13T09:41:46.113Z,51.212170
2023-06-13T09:42:56.421Z,51.212170
2023-06-13T09:43:48.072Z,51.212166
2023-06-13T09:45:48.074Z,51.212181
2023-06-13T09:46:46.083Z,51.212265
2023-06-13T09:47:46.214Z,51.212360
2023-06-13T09:48:46.099Z,51.212349
2023-06-13T09:50:48.057Z,51.212204
2023-06-13T09:51:46.085Z,51.212162
2023-06-13T09:52:46.010Z,51.212185
2023-06-13T09:53:46.037Z,51.212219
2023-06-13T09:54:46.050Z,51.212166
2023-06-13T09:55:46.013Z,51.212101
2023-06-13T09:56:46.022Z,51.212120
2023-06-13T09:58:08.017Z,51.212124
2023-06-13T09:58:48.022Z,51.212170
2023-06-13T09:59:45.977Z,51.212162
2023-06-13T10:00:47.001Z,51.212193
2023-06-13T10:01:46.038Z,51.212196
2023-06-13T10:02:46.026Z,51.212151
2023-06-13T10:03:46.019Z,51.212097
2023-06-13T10:04:46.018Z,51.211998
2023-06-13T10:05:45.945Z,51.212029
2023-06-13T10:06:46.131Z,51.212025
2023-06-13T10:07:45.966Z,51.212006
2023-06-13T10:08:45.945Z,51.212048
2023-06-13T10:09:45.986Z,51.212063
2023-06-13T10:10:45.938Z,51.212090
2023-06-13T10:11:45.935Z,51.212158
2023-06-13T10:12:45.942Z,51.212196
2023-06-13T10:13:45.934Z,51.212055
2023-06-13T10:14:46.040Z,51.211948
2023-06-13T10:15:45.991Z,51.211987
2023-06-13T10:16:58.711Z,51.211990
2023-06-13T10:17:47.946Z,51.212006
2023-06-13T10:18:45.934Z,51.212059
2023-06-13T10:19:45.946Z,51.212063
2023-06-13T10:20:45.976Z,51.212219
2023-06-13T10:21:51.885Z,51.212158
2023-06-13T10:22:47.891Z,51.212173
2023-06-13T10:23:45.892Z,51.212166
2023-06-13T10:24:45.890Z,51.212139
2023-06-13T10:25:45.845Z,51.212173
2023-06-13T10:26:45.849Z,51.212082
2023-06-13T10:27:45.861Z,51.212078
2023-06-13T10:28:45.849Z,51.212017
2023-06-13T10:29:45.836Z,51.211899
2023-06-13T10:30:45.859Z,51.212181
2023-06-13T10:31:45.862Z,51.212059
2023-06-13T10:32:45.857Z,51.212120
2023-06-13T10:33:45.837Z,51.212090
2023-06-13T10:34:45.815Z,51.212139
2023-06-13T10:35:45.839Z,51.212105
2023-06-13T10:36:46.199Z,51.212151
2023-06-13T10:37:45.785Z,51.212025
2023-06-13T10:38:45.783Z,51.212196
2023-06-13T10:39:45.794Z,51.212162
2023-06-13T10:40:45.767Z,51.212170
2023-06-13T10:41:45.778Z,51.212215
2023-06-13T10:42:45.767Z,51.212154
2023-06-13T10:43:45.781Z,51.212128
2023-06-13T10:44:45.819Z,51.212170
2023-06-13T10:45:45.772Z,51.212158
2023-06-13T10:46:45.733Z,51.212139
2023-06-13T10:47:45.740Z,51.212040
2023-06-13T10:48:45.738Z,51.212135
2023-06-13T10:49:45.823Z,51.212147
2023-06-13T10:50:45.736Z,51.212173
2023-06-13T10:51:45.699Z,51.212162
2023-06-13T10:52:45.714Z,51.212120
2023-06-13T10:53:45.696Z,51.212162
2023-06-13T10:54:45.703Z,51.212158
2023-06-13T10:55:45.732Z,51.212154
2023-06-13T10:56:45.691Z,51.212170
2023-06-13T10:57:45.693Z,51.212189
2023-06-13T10:58:45.674Z,51.212193
2023-06-13T10:59:45.678Z,51.212196
2023-06-13T11:00:45.674Z,51.212242
2023-06-13T11:01:45.700Z,51.212200
2023-06-13T11:02:45.710Z,51.212181
2023-06-13T11:03:45.712Z,51.212154
2023-06-13T11:04:46.632Z,51.212135
2023-06-13T11:05:46.933Z,51.212147
2023-06-13T11:06:45.610Z,51.212086
2023-06-13T11:07:45.725Z,51.212147
2023-06-13T11:08:45.668Z,51.212189
2023-06-13T11:09:45.587Z,51.212147
2023-06-13T11:10:45.646Z,51.212128
2023-06-13T11:11:45.617Z,51.212128
2023-06-13T11:12:45.718Z,51.212166
2023-06-13T11:13:45.575Z,51.212204
2023-06-13T11:14:45.639Z,51.212120
2023-06-13T11:15:45.550Z,51.212204
2023-06-13T11:16:45.604Z,51.212242
2023-06-13T11:17:47.149Z,51.212193
2023-06-13T11:18:45.614Z,51.212170
2023-06-13T11:19:45.522Z,51.212215
2023-06-13T11:20:45.513Z,51.212185
2023-06-13T11:21:45.524Z,51.212181
2023-06-13T11:22:45.536Z,51.212200
2023-06-13T11:23:45.536Z,51.212154
2023-06-13T11:24:45.537Z,51.212147
2023-06-13T11:25:45.519Z,51.212139
2023-06-13T11:26:45.518Z,51.212135
2023-06-13T11:27:45.492Z,51.212158